Santa Juliana, Brazil
Current Conditions -  °F | °C
As of 2:00 PM on Thursday 30 Oct 2014 (Local Time) from SBUR Reporting Station
Broken Clouds Broken Clouds  
Wind Chill: 88°   Ceiling: 4000
Heat Index: 88°   Visibility: 6mi
Dew Point: 61°   Wind: 16mph
Humidity: 40%   Direction: 330°NNW
Pressure: 29.91"   Gusts: NA
Location:  19.31°S, 47.53°W
Report Text: SBUR 301600Z 33014KT 9999 BKN040 31/16 Q1013
Loading
Personal Weather Stations






























Interactive Weather Map
Tropical Storm Tracking
New forecast layout! Learn more

10-Day Weather Forecast

Advertisements
Track Severe Weather on mobile